createdAt,value
2023-09-12T00:01:18.031Z,19.37
2023-09-12T00:03:45.809Z,19.36
2023-09-12T00:06:13.524Z,19.32
2023-09-12T00:08:41.328Z,19.25
2023-09-12T00:11:12.432Z,19.21
2023-09-12T00:13:42.527Z,19.20
2023-09-12T00:16:11.966Z,19.25
2023-09-12T00:18:40.548Z,19.26
2023-09-12T00:21:08.426Z,19.23
2023-09-12T00:23:36.281Z,19.18
2023-09-12T00:26:03.848Z,19.13
2023-09-12T00:28:31.385Z,19.12
2023-09-12T00:31:00.242Z,19.07
2023-09-12T00:33:27.864Z,19.10
2023-09-12T00:35:55.478Z,19.19
2023-09-12T00:38:23.022Z,19.21
2023-09-12T00:40:50.618Z,19.16
2023-09-12T00:43:18.484Z,19.10
2023-09-12T00:45:46.068Z,19.07
2023-09-12T00:48:15.930Z,18.99
2023-09-12T00:50:45.508Z,18.92
2023-09-12T00:53:13.134Z,18.92
2023-09-12T00:55:46.308Z,18.95
2023-09-12T00:58:15.489Z,18.92
2023-09-12T01:00:43.310Z,18.93
2023-09-12T01:03:11.766Z,18.90
2023-09-12T01:05:40.929Z,18.91
2023-09-12T01:08:08.516Z,18.86
2023-09-12T01:10:36.294Z,18.87
2023-09-12T01:13:04.554Z,18.84
2023-09-12T01:15:32.160Z,18.79
2023-09-12T01:18:00.003Z,18.74
2023-09-12T01:20:32.642Z,18.70
2023-09-12T01:23:33.947Z,18.75
2023-09-12T01:26:20.066Z,18.67
2023-09-12T01:28:51.719Z,18.58
2023-09-12T01:31:19.836Z,18.57
2023-09-12T01:33:47.661Z,18.59
2023-09-12T01:36:15.281Z,18.62
2023-09-12T01:38:43.238Z,18.54
2023-09-12T01:41:11.123Z,18.60
2023-09-12T01:43:40.574Z,18.54
2023-09-12T01:46:09.787Z,18.46
2023-09-12T01:48:39.689Z,18.32
2023-09-12T01:51:08.923Z,18.25
2023-09-12T01:53:38.216Z,18.30
2023-09-12T01:56:05.810Z,18.34
2023-09-12T01:58:33.683Z,18.33
2023-09-12T02:01:01.282Z,18.38
2023-09-12T02:03:30.354Z,18.47
2023-09-12T02:05:57.966Z,18.51
2023-09-12T02:08:25.517Z,18.53
2023-09-12T02:10:53.063Z,18.50
2023-09-12T02:13:20.626Z,18.45
2023-09-12T02:15:48.345Z,18.39
2023-09-12T02:18:16.144Z,18.38
2023-09-12T02:20:46.993Z,18.39
2023-09-12T02:23:14.605Z,18.44
2023-09-12T02:25:42.158Z,18.39
2023-09-12T02:28:09.731Z,18.31
2023-09-12T02:30:40.191Z,18.32
2023-09-12T02:33:08.130Z,18.36
2023-09-12T02:35:35.842Z,18.33
2023-09-12T02:38:05.146Z,18.36
2023-09-12T02:40:32.692Z,18.27
2023-09-12T02:43:00.210Z,18.23
2023-09-12T02:45:27.848Z,18.24
2023-09-12T02:47:55.582Z,18.28
2023-09-12T02:50:23.164Z,18.28
2023-09-12T02:52:50.758Z,18.29
2023-09-12T02:55:19.753Z,18.19
2023-09-12T02:57:47.992Z,18.20
2023-09-12T03:00:15.927Z,18.17
2023-09-12T03:02:43.585Z,17.91
2023-09-12T03:05:11.469Z,18.03
2023-09-12T03:07:39.019Z,18.15
2023-09-12T03:10:07.366Z,18.22
2023-09-12T03:12:37.617Z,18.25
2023-09-12T03:15:07.538Z,18.20
2023-09-12T03:17:36.587Z,18.27
2023-09-12T03:20:07.511Z,18.30
2023-09-12T03:22:38.526Z,18.24
2023-09-12T03:25:07.098Z,18.22
2023-09-12T03:27:36.081Z,18.19
2023-09-12T03:30:04.855Z,18.17
2023-09-12T03:32:32.458Z,18.13
2023-09-12T03:35:00.198Z,18.11
2023-09-12T03:37:28.398Z,18.05
2023-09-12T03:39:56.076Z,18.00
2023-09-12T03:42:25.998Z,18.04
2023-09-12T03:44:56.544Z,18.01
2023-09-12T03:47:24.113Z,18.04
2023-09-12T03:49:51.659Z,17.97
2023-09-12T03:52:19.916Z,17.91
2023-09-12T03:54:47.528Z,17.96
2023-09-12T03:57:15.161Z,17.94
2023-09-12T03:59:42.732Z,17.88
2023-09-12T04:02:11.900Z,18.02
2023-09-12T04:04:39.582Z,17.98
2023-09-12T04:07:07.498Z,17.88
2023-09-12T04:09:35.140Z,17.86
2023-09-12T04:12:02.723Z,17.86
2023-09-12T04:14:30.308Z,17.94
2023-09-12T04:16:58.008Z,18.00
2023-09-12T04:19:27.262Z,17.97
2023-09-12T04:21:54.795Z,18.03
2023-09-12T04:24:22.382Z,18.06
2023-09-12T04:26:50.036Z,18.10
2023-09-12T04:29:17.629Z,18.12
2023-09-12T04:31:45.324Z,18.11
2023-09-12T04:34:12.999Z,18.12
2023-09-12T04:36:41.930Z,18.10
2023-09-12T04:39:10.090Z,18.11
2023-09-12T04:41:36.686Z,18.05
2023-09-12T04:44:04.224Z,17.92
2023-09-12T04:46:31.826Z,17.94
2023-09-12T04:48:59.556Z,18.03
2023-09-12T04:51:28.265Z,17.99
2023-09-12T04:53:57.553Z,18.07
2023-09-12T04:56:25.343Z,18.18
2023-09-12T04:58:52.944Z,18.22
2023-09-12T05:01:20.524Z,18.31
2023-09-12T05:03:48.263Z,18.35
2023-09-12T05:06:16.146Z,18.53
2023-09-12T05:08:44.038Z,18.75
2023-09-12T05:11:13.332Z,19.08
2023-09-12T05:13:40.884Z,19.51
2023-09-12T05:16:08.508Z,19.94
2023-09-12T05:18:36.152Z,20.49
2023-09-12T05:21:03.903Z,20.89
2023-09-12T05:23:31.478Z,21.15
2023-09-12T05:25:59.066Z,21.42
2023-09-12T05:28:28.025Z,21.95
2023-09-12T05:30:55.680Z,22.53
2023-09-12T05:33:23.564Z,23.07
2023-09-12T05:35:51.177Z,23.72
2023-09-12T05:38:18.715Z,24.32
2023-09-12T05:40:46.296Z,24.79
2023-09-12T05:43:13.862Z,25.23
2023-09-12T05:45:42.825Z,25.76
2023-09-12T05:48:10.686Z,26.22
2023-09-12T05:50:38.754Z,26.72
2023-09-12T05:53:06.315Z,27.11
2023-09-12T05:55:33.866Z,27.42
2023-09-12T05:58:01.418Z,27.68
2023-09-12T06:00:29.635Z,27.98
2023-09-12T06:02:58.556Z,28.25
2023-09-12T06:05:26.288Z,28.68
2023-09-12T06:07:53.838Z,29.41
2023-09-12T06:10:21.490Z,30.12
2023-09-12T06:12:50.713Z,30.67
2023-09-12T06:15:18.467Z,31.14
2023-09-12T06:17:46.059Z,31.51
2023-09-12T06:20:15.061Z,32.03
2023-09-12T06:22:44.348Z,32.78
2023-09-12T06:25:11.917Z,33.46
2023-09-12T06:27:39.440Z,33.99
2023-09-12T06:30:08.511Z,33.99
2023-09-12T06:32:36.253Z,33.59
2023-09-12T06:35:03.876Z,32.80
2023-09-12T06:37:32.796Z,32.49
2023-09-12T06:40:00.355Z,32.52
2023-09-12T06:42:27.959Z,32.88
2023-09-12T06:44:55.577Z,33.35
2023-09-12T06:47:23.125Z,33.25
2023-09-12T06:49:54.336Z,32.27
2023-09-12T06:52:23.223Z,32.64
2023-09-12T06:54:52.354Z,32.92
2023-09-12T06:57:19.978Z,33.51
2023-09-12T06:59:49.139Z,33.54
2023-09-12T07:02:18.570Z,33.63
2023-09-12T07:04:46.167Z,33.52
2023-09-12T07:07:13.717Z,33.29
2023-09-12T07:09:41.293Z,33.37
2023-09-12T07:12:10.867Z,33.55
2023-09-12T07:14:38.889Z,33.68
2023-09-12T07:17:08.245Z,34.30
2023-09-12T07:19:36.307Z,34.27
2023-09-12T07:22:04.256Z,34.27
2023-09-12T07:24:31.885Z,34.52
2023-09-12T07:26:59.774Z,34.53
2023-09-12T07:29:29.329Z,34.90
2023-09-12T07:31:58.453Z,35.35
2023-09-12T07:34:27.504Z,35.35
2023-09-12T07:36:55.562Z,35.57
2023-09-12T07:39:23.333Z,35.73
2023-09-12T07:41:50.933Z,35.96
2023-09-12T07:44:18.501Z,36.07
2023-09-12T07:46:47.546Z,36.11
2023-09-12T07:49:15.178Z,36.56
2023-09-12T07:51:42.776Z,36.64
2023-09-12T07:54:10.322Z,36.85
2023-09-12T07:56:37.901Z,36.81
2023-09-12T07:59:05.467Z,36.90
2023-09-12T08:01:33.030Z,37.08
2023-09-12T08:04:02.013Z,36.77
2023-09-12T08:06:30.089Z,36.10
2023-09-12T08:08:59.932Z,36.30
2023-09-12T08:11:28.192Z,36.81
2023-09-12T08:13:58.147Z,36.70
2023-09-12T08:16:26.118Z,36.86
2023-09-12T08:18:53.775Z,37.89
2023-09-12T08:21:22.696Z,39.05
2023-09-12T08:23:50.304Z,39.91
2023-09-12T08:26:17.931Z,39.89
2023-09-12T08:28:45.725Z,39.85
2023-09-12T08:31:13.431Z,39.60
2023-09-12T08:33:41.128Z,39.64
2023-09-12T08:36:08.766Z,39.43
2023-09-12T08:38:37.734Z,38.84
2023-09-12T08:41:05.457Z,38.78
2023-09-12T08:43:33.587Z,38.21
2023-09-12T08:46:01.256Z,38.67
2023-09-12T08:48:30.384Z,38.57
2023-09-12T08:50:58.798Z,38.33
2023-09-12T08:53:26.337Z,38.23
2023-09-12T08:55:55.720Z,38.77
2023-09-12T08:58:24.568Z,37.83
2023-09-12T09:00:52.686Z,37.97
2023-09-12T09:03:23.331Z,38.14
2023-09-12T09:05:53.475Z,38.55
2023-09-12T09:08:22.329Z,38.61
2023-09-12T09:11:03.506Z,38.38
2023-09-12T09:13:31.576Z,38.78
2023-09-12T09:16:12.786Z,38.81
2023-09-12T09:18:56.925Z,38.92
2023-09-12T09:21:26.381Z,37.94
2023-09-12T09:23:55.177Z,38.64
2023-09-12T09:26:24.954Z,38.37
2023-09-12T09:29:06.107Z,38.95
2023-09-12T09:31:34.633Z,39.16
2023-09-12T09:34:03.744Z,38.76
2023-09-12T09:36:31.782Z,38.50
2023-09-12T09:39:00.640Z,38.45
2023-09-12T09:41:29.944Z,39.05
2023-09-12T09:43:57.564Z,39.89
2023-09-12T09:46:25.491Z,39.64
2023-09-12T09:48:54.993Z,38.98
2023-09-12T09:51:22.681Z,38.72
2023-09-12T09:53:53.761Z,38.46
2023-09-12T09:56:21.331Z,37.40
2023-09-12T09:58:50.390Z,36.96
2023-09-12T10:01:21.030Z,37.81
2023-09-12T10:03:49.850Z,37.70
2023-09-12T10:06:18.738Z,38.49
2023-09-12T10:08:47.674Z,37.91
2023-09-12T10:11:16.928Z,38.96
2023-09-12T10:13:49.291Z,39.23
2023-09-12T10:16:19.286Z,38.97
2023-09-12T10:18:57.011Z,39.33
2023-09-12T10:21:32.299Z,39.45
2023-09-12T10:24:01.387Z,38.15
2023-09-12T10:26:29.551Z,38.00
2023-09-12T10:28:57.302Z,37.96
2023-09-12T10:31:27.082Z,37.45
2023-09-12T10:33:55.322Z,37.10
2023-09-12T10:36:24.518Z,37.29
2023-09-12T10:38:53.020Z,37.49
2023-09-12T10:41:21.621Z,36.86
2023-09-12T10:43:53.265Z,36.13
2023-09-12T10:46:22.261Z,36.26
2023-09-12T10:48:51.939Z,36.71
2023-09-12T10:51:20.635Z,36.52
2023-09-12T10:53:49.809Z,36.75
2023-09-12T10:56:22.125Z,37.34
2023-09-12T10:59:13.463Z,36.14
2023-09-12T11:01:43.313Z,35.62
2023-09-12T11:04:38.749Z,36.73
2023-09-12T11:07:35.066Z,36.95
2023-09-12T11:10:19.760Z,36.26
2023-09-12T11:12:49.652Z,36.14
2023-09-12T11:15:18.202Z,36.63
2023-09-12T11:17:47.305Z,37.50
2023-09-12T11:20:17.863Z,37.23
2023-09-12T11:22:47.076Z,37.11
2023-09-12T11:25:19.205Z,36.93
2023-09-12T11:27:48.129Z,37.09
2023-09-12T11:30:16.502Z,36.88
2023-09-12T11:32:47.802Z,36.42
2023-09-12T11:35:17.088Z,37.99
2023-09-12T11:37:50.948Z,38.55
2023-09-12T11:40:19.742Z,37.39
2023-09-12T11:42:48.581Z,36.92
2023-09-12T11:45:16.636Z,37.19
2023-09-12T11:47:44.972Z,37.22
2023-09-12T11:53:09.164Z,38.36
2023-09-12T11:55:39.426Z,39.02
2023-09-12T11:58:08.107Z,38.95
2023-09-12T12:00:35.891Z,38.72
2023-09-12T12:03:03.544Z,38.85
2023-09-12T12:05:31.273Z,39.40
2023-09-12T12:08:21.735Z,39.34
2023-09-12T12:10:52.918Z,38.49
2023-09-12T12:13:21.866Z,37.89
2023-09-12T12:15:49.947Z,37.72
2023-09-12T12:18:18.160Z,37.79
2023-09-12T12:20:45.828Z,38.50
2023-09-12T12:23:13.427Z,39.11
2023-09-12T12:25:41.204Z,39.48
2023-09-12T12:28:10.877Z,39.96
2023-09-12T12:30:38.629Z,38.86
2023-09-12T12:33:28.824Z,39.49
2023-09-12T12:36:02.402Z,38.54
2023-09-12T12:38:30.318Z,39.04
2023-09-12T12:40:58.025Z,37.43
2023-09-12T12:43:28.444Z,37.38
2023-09-12T12:45:57.124Z,37.80
2023-09-12T12:48:32.500Z,38.67
2023-09-12T12:51:00.702Z,38.34
2023-09-12T12:53:51.939Z,37.80
2023-09-12T12:56:22.787Z,37.59
2023-09-12T12:58:53.651Z,37.16
2023-09-12T13:01:21.424Z,36.99
2023-09-12T13:03:51.111Z,36.27
2023-09-12T13:06:20.124Z,36.24
2023-09-12T13:08:49.873Z,37.19
2023-09-12T13:11:18.913Z,37.78
2023-09-12T13:13:49.017Z,37.92
2023-09-12T13:16:18.288Z,38.29
2023-09-12T13:18:46.262Z,37.63
2023-09-12T13:21:13.990Z,37.72
2023-09-12T13:23:41.954Z,37.18
2023-09-12T13:26:11.602Z,36.48
2023-09-12T13:28:39.369Z,36.57
2023-09-12T13:31:06.938Z,36.80
2023-09-12T13:33:35.940Z,36.80
2023-09-12T13:36:03.564Z,37.47
2023-09-12T13:38:31.170Z,37.92
2023-09-12T13:40:58.687Z,37.56
2023-09-12T13:43:26.256Z,38.11
2023-09-12T13:45:53.834Z,38.57
2023-09-12T13:48:21.511Z,38.69
2023-09-12T13:50:50.456Z,38.54
2023-09-12T13:53:18.126Z,37.16
2023-09-12T13:56:11.611Z,36.47
2023-09-12T13:58:42.533Z,36.06
2023-09-12T14:01:12.909Z,37.18
2023-09-12T14:03:41.528Z,37.69
2023-09-12T14:06:10.861Z,37.66
2023-09-12T14:08:38.637Z,38.04
2023-09-12T14:11:09.137Z,37.95
2023-09-12T14:13:38.393Z,38.49
2023-09-12T14:16:06.347Z,38.56
2023-09-12T14:18:34.963Z,39.67
2023-09-12T14:21:02.973Z,39.58
2023-09-12T14:23:33.226Z,39.45
2023-09-12T14:26:01.283Z,37.13
2023-09-12T14:28:33.724Z,37.48
2023-09-12T14:31:01.493Z,37.60
2023-09-12T14:33:29.186Z,38.50
2023-09-12T14:35:56.836Z,38.25
2023-09-12T14:38:25.776Z,38.28
2023-09-12T14:40:56.088Z,38.41
2023-09-12T14:43:24.556Z,39.08
2023-09-12T14:45:52.288Z,39.26
2023-09-12T14:48:19.856Z,38.21
2023-09-12T14:50:50.108Z,36.47
2023-09-12T14:53:17.972Z,36.39
2023-09-12T14:55:45.757Z,36.47
2023-09-12T14:58:14.687Z,37.39
2023-09-12T15:00:42.277Z,38.01
2023-09-12T15:03:09.903Z,38.58
2023-09-12T15:05:37.548Z,38.91
2023-09-12T15:08:07.861Z,38.58
2023-09-12T15:10:35.372Z,37.59
2023-09-12T15:13:03.795Z,36.89
2023-09-12T15:15:32.740Z,36.78
2023-09-12T15:18:01.946Z,36.62
2023-09-12T15:20:29.573Z,36.84
2023-09-12T15:22:57.100Z,36.85
2023-09-12T15:25:24.662Z,37.12
2023-09-12T15:27:52.256Z,37.26
2023-09-12T15:30:19.952Z,36.92
2023-09-12T15:32:48.827Z,35.87
2023-09-12T15:35:16.965Z,35.44
2023-09-12T15:37:44.459Z,35.79
2023-09-12T15:40:12.806Z,35.81
2023-09-12T15:42:40.337Z,35.44
2023-09-12T15:45:10.947Z,35.40
2023-09-12T15:47:39.552Z,35.92
2023-09-12T15:50:09.458Z,36.08
2023-09-12T15:52:38.724Z,35.98
2023-09-12T15:55:07.470Z,35.37
2023-09-12T15:57:36.549Z,35.09
2023-09-12T16:00:07.940Z,35.12
2023-09-12T16:02:35.893Z,34.69
2023-09-12T16:05:03.640Z,34.03
2023-09-12T16:07:32.671Z,33.95
2023-09-12T16:10:00.346Z,33.32
2023-09-12T16:12:28.290Z,32.99
2023-09-12T16:14:56.918Z,33.06
2023-09-12T16:17:24.628Z,32.98
2023-09-12T16:19:53.012Z,33.11
2023-09-12T16:22:20.574Z,33.02
2023-09-12T16:24:49.648Z,32.96
2023-09-12T16:27:18.282Z,32.69
2023-09-12T16:29:45.903Z,32.11
2023-09-12T16:32:13.435Z,31.94
2023-09-12T16:34:41.091Z,31.80
2023-09-12T16:37:08.769Z,31.68
2023-09-12T16:39:40.420Z,31.70
2023-09-12T16:42:09.761Z,31.51
2023-09-12T16:44:37.295Z,31.37
2023-09-12T16:47:06.989Z,31.12
2023-09-12T16:49:35.222Z,30.97
2023-09-12T16:52:02.909Z,30.73
2023-09-12T16:54:30.620Z,30.45
2023-09-12T16:56:58.206Z,30.10
2023-09-12T16:59:27.352Z,29.90
2023-09-12T17:01:54.953Z,29.69
2023-09-12T17:04:22.752Z,29.40
2023-09-12T17:06:50.333Z,29.03
2023-09-12T17:09:17.889Z,28.61
2023-09-12T17:11:45.458Z,28.26
2023-09-12T17:14:14.458Z,28.41
2023-09-12T17:16:43.303Z,28.40
2023-09-12T17:19:10.925Z,28.31
2023-09-12T17:21:38.591Z,28.25
2023-09-12T17:24:06.909Z,28.13
2023-09-12T17:26:34.469Z,28.13
2023-09-12T17:29:02.080Z,28.08
2023-09-12T17:31:29.675Z,28.03
2023-09-12T17:33:58.587Z,27.98
2023-09-12T17:36:26.303Z,27.92
2023-09-12T17:38:53.823Z,27.82
2023-09-12T17:41:21.864Z,27.17
2023-09-12T17:43:49.372Z,26.97
2023-09-12T17:46:16.962Z,27.12
2023-09-12T17:48:44.542Z,27.01
2023-09-12T17:51:13.420Z,27.09
2023-09-12T17:53:41.129Z,27.10
2023-09-12T17:56:09.187Z,27.18
2023-09-12T17:58:36.931Z,27.24
2023-09-12T18:01:05.169Z,27.32
2023-09-12T18:03:33.152Z,27.21
2023-09-12T18:06:00.972Z,27.29
2023-09-12T18:08:30.566Z,27.24
2023-09-12T18:10:58.209Z,27.22
2023-09-12T18:13:25.763Z,27.02
2023-09-12T18:15:53.397Z,27.04
2023-09-12T18:18:20.974Z,27.07
2023-09-12T18:20:48.660Z,27.12
2023-09-12T18:23:17.547Z,27.10
2023-09-12T18:25:46.484Z,27.02
2023-09-12T18:28:14.138Z,26.99
2023-09-12T18:30:41.702Z,26.95
2023-09-12T18:33:09.332Z,26.80
2023-09-12T18:35:36.944Z,26.70
2023-09-12T18:38:04.935Z,26.49
2023-09-12T18:40:32.511Z,26.26
2023-09-12T18:43:01.446Z,26.16
2023-09-12T18:45:29.207Z,26.11
2023-09-12T18:47:56.862Z,26.10
2023-09-12T18:50:25.318Z,25.91
2023-09-12T18:52:55.790Z,26.06
2023-09-12T18:55:23.694Z,26.28
2023-09-12T18:57:51.503Z,26.24
2023-09-12T19:00:20.564Z,26.44
2023-09-12T19:02:48.355Z,26.53
2023-09-12T19:05:16.146Z,26.41
2023-09-12T19:07:43.806Z,26.40
2023-09-12T19:10:12.954Z,26.35
2023-09-12T19:12:41.511Z,26.41
2023-09-12T19:15:10.083Z,26.20
2023-09-12T19:17:39.219Z,26.00
2023-09-12T19:20:09.262Z,25.74
2023-09-12T19:22:36.981Z,25.73
2023-09-12T19:25:05.029Z,25.71
2023-09-12T19:27:32.663Z,25.76
2023-09-12T19:30:01.155Z,25.57
2023-09-12T19:32:29.343Z,25.76
2023-09-12T19:35:00.490Z,25.81
2023-09-12T19:37:28.144Z,25.92
2023-09-12T19:39:55.724Z,25.62
2023-09-12T19:42:23.398Z,25.99
2023-09-12T19:44:50.714Z,25.82
2023-09-12T19:47:22.015Z,26.00
2023-09-12T19:49:49.677Z,26.14
2023-09-12T19:52:20.772Z,26.18
2023-09-12T19:54:48.634Z,26.38
2023-09-12T19:57:16.306Z,26.65
2023-09-12T19:59:43.895Z,26.55
2023-09-12T20:02:12.228Z,26.64
2023-09-12T20:04:39.917Z,26.47
2023-09-12T20:07:07.602Z,26.54
2023-09-12T20:09:36.520Z,26.57
2023-09-12T20:12:04.189Z,26.51
2023-09-12T20:14:31.734Z,26.48
2023-09-12T20:16:59.378Z,26.45
2023-09-12T20:19:26.961Z,26.42
2023-09-12T20:21:54.534Z,26.23
2023-09-12T20:24:22.349Z,26.20
2023-09-12T20:26:51.260Z,26.13
2023-09-12T20:29:18.853Z,25.85
2023-09-12T20:31:49.510Z,25.48
2023-09-12T20:34:17.320Z,25.71
2023-09-12T20:36:44.942Z,25.77
2023-09-12T20:39:27.311Z,25.76
2023-09-12T20:41:57.324Z,25.56
2023-09-12T20:44:25.755Z,25.43
2023-09-12T20:46:53.940Z,25.01
2023-09-12T20:49:21.725Z,25.10
2023-09-12T20:51:50.522Z,24.82
2023-09-12T20:54:19.385Z,24.96
2023-09-12T20:56:50.093Z,25.14
2023-09-12T20:59:19.005Z,25.13
2023-09-12T21:01:46.817Z,25.05
2023-09-12T21:04:14.565Z,25.16
2023-09-12T21:06:42.288Z,25.11
2023-09-12T21:09:15.474Z,24.97
2023-09-12T21:11:43.126Z,24.94
2023-09-12T21:14:10.697Z,24.94
2023-09-12T21:16:39.707Z,24.73
2023-09-12T21:19:07.409Z,24.67
2023-09-12T21:21:35.245Z,24.54
2023-09-12T21:24:02.835Z,24.36
2023-09-12T21:26:30.747Z,24.24
2023-09-12T21:28:58.280Z,24.05
2023-09-12T21:31:25.882Z,23.90
2023-09-12T21:33:54.858Z,23.55
2023-09-12T21:36:22.452Z,23.42
2023-09-12T21:38:49.979Z,23.22
2023-09-12T21:41:17.694Z,23.13
2023-09-12T21:43:45.506Z,23.29
2023-09-12T21:46:13.457Z,23.56
2023-09-12T21:48:41.085Z,23.41
2023-09-12T21:51:11.699Z,23.49
2023-09-12T21:53:39.580Z,23.06
2023-09-12T21:56:07.141Z,23.04
2023-09-12T21:58:34.775Z,23.02
2023-09-12T22:01:02.366Z,23.25
2023-09-12T22:03:30.058Z,23.29
2023-09-12T22:05:57.595Z,23.00
2023-09-12T22:08:26.513Z,23.27
2023-09-12T22:10:54.053Z,23.17
2023-09-12T22:13:21.593Z,23.37
2023-09-12T22:15:49.330Z,23.40
2023-09-12T22:18:16.923Z,23.41
2023-09-12T22:20:44.478Z,23.11
2023-09-12T22:23:12.540Z,23.10
2023-09-12T22:25:41.426Z,23.19
2023-09-12T22:28:09.315Z,23.28
2023-09-12T22:30:37.201Z,23.36
2023-09-12T22:33:06.370Z,23.50
2023-09-12T22:35:33.987Z,23.38
2023-09-12T22:38:01.532Z,23.34
2023-09-12T22:40:29.121Z,23.48
2023-09-12T22:42:58.029Z,23.41
2023-09-12T22:45:25.616Z,23.27
2023-09-12T22:47:53.213Z,23.09
2023-09-12T22:50:20.886Z,23.08
2023-09-12T22:52:48.444Z,23.28
2023-09-12T22:55:16.044Z,23.22
2023-09-12T22:57:43.645Z,22.99
2023-09-12T23:00:16.006Z,22.72
2023-09-12T23:02:44.885Z,22.34
2023-09-12T23:05:12.509Z,22.34
2023-09-12T23:07:40.464Z,22.31
2023-09-12T23:10:09.374Z,22.63
2023-09-12T23:12:37.130Z,23.01
2023-09-12T23:15:07.671Z,23.15
2023-09-12T23:17:36.802Z,23.41
2023-09-12T23:20:06.979Z,23.26
2023-09-12T23:22:34.604Z,23.29
2023-09-12T23:25:02.217Z,23.40
2023-09-12T23:27:29.793Z,23.06
2023-09-12T23:29:58.895Z,23.03
2023-09-12T23:32:26.497Z,23.01
2023-09-12T23:34:55.907Z,23.13
2023-09-12T23:37:23.947Z,23.12
2023-09-12T23:39:51.778Z,22.86
2023-09-12T23:42:21.000Z,22.47
2023-09-12T23:44:48.544Z,22.18
2023-09-12T23:47:16.456Z,22.46
2023-09-12T23:49:44.272Z,22.32
2023-09-12T23:52:13.244Z,22.48
2023-09-12T23:54:41.327Z,22.42
2023-09-12T23:57:10.712Z,22.49
2023-09-12T23:59:39.357Z,22.46
